createdAt,value
2018-05-27T00:02:08.141Z,9.60
2018-05-27T00:04:36.384Z,8.63
2018-05-27T00:07:03.891Z,9.97
2018-05-27T00:09:31.449Z,8.60
2018-05-27T00:11:58.937Z,9.23
2018-05-27T00:14:26.415Z,9.13
2018-05-27T00:16:53.917Z,10.00
2018-05-27T00:19:21.387Z,9.33
2018-05-27T00:21:48.861Z,8.50
2018-05-27T00:24:16.357Z,10.00
2018-05-27T00:26:44.626Z,9.73
2018-05-27T00:29:12.861Z,9.83
2018-05-27T00:31:40.368Z,10.07
2018-05-27T00:34:08.609Z,10.83
2018-05-27T00:36:36.112Z,11.83
2018-05-27T00:39:03.618Z,10.67
2018-05-27T00:41:31.137Z,11.17
2018-05-27T00:43:58.636Z,11.00
2018-05-27T00:46:26.109Z,10.87
2018-05-27T00:48:53.709Z,11.20
2018-05-27T00:51:21.185Z,11.43
2018-05-27T00:53:59.613Z,12.17
2018-05-27T00:56:27.088Z,12.30
2018-05-27T00:58:54.593Z,12.20
2018-05-27T01:01:22.072Z,13.37
2018-05-27T01:03:49.595Z,13.10
2018-05-27T01:06:17.107Z,11.73
2018-05-27T01:08:44.583Z,12.77
2018-05-27T01:11:12.844Z,11.37
2018-05-27T01:13:40.323Z,12.00
2018-05-27T01:16:08.584Z,11.67
2018-05-27T01:18:36.833Z,12.00
2018-05-27T01:21:04.344Z,12.07
2018-05-27T01:23:31.818Z,12.17
2018-05-27T01:25:59.328Z,11.07
2018-05-27T01:28:27.570Z,12.43
2018-05-27T01:30:55.082Z,11.83
2018-05-27T01:33:22.580Z,11.10
2018-05-27T01:35:50.193Z,11.27
2018-05-27T01:38:18.433Z,12.17
2018-05-27T01:40:45.934Z,11.67
2018-05-27T01:43:13.449Z,11.57
2018-05-27T01:45:40.892Z,11.70
2018-05-27T01:48:08.386Z,11.90
2018-05-27T01:50:36.653Z,11.40
2018-05-27T01:53:04.963Z,12.40
2018-05-27T01:55:32.455Z,12.80
2018-05-27T01:57:59.966Z,11.77
2018-05-27T02:00:27.477Z,11.77
2018-05-27T02:02:54.950Z,12.07
2018-05-27T02:05:22.445Z,11.70
2018-05-27T02:07:49.949Z,11.90
2018-05-27T02:10:17.733Z,12.40
2018-05-27T02:12:46.008Z,12.53
2018-05-27T02:15:14.249Z,13.67
2018-05-27T02:17:41.754Z,13.50
2018-05-27T02:20:09.329Z,12.40
2018-05-27T02:22:36.821Z,12.83
2018-05-27T02:25:04.304Z,12.17
2018-05-27T02:27:31.800Z,12.47
2018-05-27T02:29:59.321Z,11.43
2018-05-27T02:32:27.603Z,11.73
2018-05-27T02:34:55.119Z,12.57
2018-05-27T02:37:22.637Z,12.93
2018-05-27T02:39:50.134Z,12.90
2018-05-27T02:42:17.620Z,13.47
2018-05-27T02:44:45.910Z,12.67
2018-05-27T02:47:13.393Z,11.90
2018-05-27T02:49:40.952Z,12.00
2018-05-27T02:52:08.433Z,12.17
2018-05-27T02:54:35.954Z,12.23
2018-05-27T02:57:03.432Z,12.63
2018-05-27T02:59:30.921Z,12.20
2018-05-27T03:01:58.394Z,12.10
2018-05-27T03:04:26.654Z,12.30
2018-05-27T03:06:54.909Z,12.50
2018-05-27T03:09:22.435Z,12.27
2018-05-27T03:11:49.905Z,13.23
2018-05-27T03:14:17.392Z,12.97
2018-05-27T03:16:44.882Z,13.33
2018-05-27T03:19:13.129Z,12.03
2018-05-27T03:21:40.622Z,12.90
2018-05-27T03:24:08.095Z,11.43
2018-05-27T03:26:35.624Z,11.93
2018-05-27T03:29:03.109Z,11.57
2018-05-27T03:31:30.617Z,12.50
2018-05-27T03:33:58.097Z,11.60
2018-05-27T03:36:26.362Z,11.53
2018-05-27T03:38:54.617Z,11.87
2018-05-27T03:41:22.103Z,11.23
2018-05-27T03:43:50.358Z,10.90
2018-05-27T03:46:17.828Z,10.00
2018-05-27T03:48:46.128Z,11.00
2018-05-27T03:51:13.625Z,11.07
2018-05-27T03:53:41.117Z,10.90
2018-05-27T03:56:09.386Z,11.50
2018-05-27T03:58:37.773Z,10.93
2018-05-27T04:01:05.260Z,11.40
2018-05-27T04:03:32.732Z,11.23
2018-05-27T04:06:12.293Z,10.83
2018-05-27T04:08:39.760Z,9.93
2018-05-27T04:11:07.274Z,10.50
2018-05-27T04:13:34.748Z,10.63
2018-05-27T04:16:02.263Z,9.90
2018-05-27T04:18:29.741Z,10.37
2018-05-27T04:20:57.244Z,10.67
2018-05-27T04:23:25.489Z,10.00
2018-05-27T04:25:52.993Z,10.27
2018-05-27T04:28:21.252Z,10.27
2018-05-27T04:30:48.761Z,10.17
2018-05-27T04:33:16.262Z,10.23
2018-05-27T04:35:45.433Z,10.03
2018-05-27T04:38:12.941Z,9.60
2018-05-27T04:40:40.414Z,10.43
2018-05-27T04:43:07.966Z,9.70
2018-05-27T04:45:35.445Z,10.57
2018-05-27T04:48:03.173Z,9.90
2018-05-27T04:50:30.673Z,10.17
2018-05-27T04:52:58.194Z,10.10
2018-05-27T04:55:25.673Z,9.77
2018-05-27T04:57:53.181Z,9.13
2018-05-27T05:00:21.421Z,9.63
2018-05-27T05:02:48.888Z,9.20
2018-05-27T05:05:17.180Z,9.30
2018-05-27T05:07:44.656Z,8.93
2018-05-27T05:10:12.187Z,9.50
2018-05-27T05:12:39.661Z,10.23
2018-05-27T05:15:07.961Z,9.73
2018-05-27T05:17:35.520Z,10.20
2018-05-27T05:20:03.015Z,9.90
2018-05-27T05:22:30.490Z,10.33
2018-05-27T05:24:57.974Z,9.90
2018-05-27T05:27:26.238Z,9.50
2018-05-27T05:29:53.753Z,10.37
2018-05-27T05:32:21.264Z,10.77
2018-05-27T05:34:48.740Z,9.13
2018-05-27T05:37:16.235Z,9.47
2018-05-27T05:39:43.721Z,8.33
2018-05-27T05:42:11.994Z,8.60
2018-05-27T05:44:39.481Z,9.43
2018-05-27T05:47:07.011Z,8.70
2018-05-27T05:49:34.497Z,8.90
2018-05-27T05:52:01.989Z,9.20
2018-05-27T05:54:29.477Z,9.47
2018-05-27T05:56:57.011Z,9.60
2018-05-27T05:59:24.501Z,9.10
2018-05-27T06:01:51.979Z,9.80
2018-05-27T06:04:19.460Z,8.93
2018-05-27T06:06:46.953Z,10.17
2018-05-27T06:09:15.214Z,9.57
2018-05-27T06:11:42.743Z,9.67
2018-05-27T06:14:10.237Z,10.27
2018-05-27T06:16:37.719Z,8.87
2018-05-27T06:19:05.243Z,9.07
2018-05-27T06:21:32.797Z,9.13
2018-05-27T06:24:00.276Z,10.10
2018-05-27T06:26:28.529Z,9.37
2018-05-27T06:28:56.013Z,10.10
2018-05-27T06:31:24.270Z,10.30
2018-05-27T06:33:52.516Z,9.07
2018-05-27T06:36:20.015Z,9.47
2018-05-27T06:38:48.268Z,9.23
2018-05-27T06:41:15.784Z,9.20
2018-05-27T06:43:43.336Z,9.30
2018-05-27T06:46:10.835Z,8.67
2018-05-27T06:48:38.311Z,8.97
2018-05-27T06:51:06.549Z,9.00
2018-05-27T06:53:34.061Z,9.00
2018-05-27T06:56:01.633Z,8.60
2018-05-27T06:58:29.126Z,8.70
2018-05-27T07:00:56.615Z,8.80
2018-05-27T07:03:24.901Z,8.60
2018-05-27T07:05:53.163Z,8.67
2018-05-27T07:08:21.413Z,8.50
2018-05-27T07:10:50.413Z,8.50
2018-05-27T07:13:19.802Z,8.23
2018-05-27T07:15:47.283Z,7.47
2018-05-27T07:18:15.545Z,7.87
2018-05-27T07:20:43.050Z,7.00
2018-05-27T07:23:10.518Z,7.67
2018-05-27T07:25:38.030Z,6.63
2018-05-27T07:28:06.336Z,6.97
2018-05-27T07:30:34.561Z,8.03
2018-05-27T07:33:02.033Z,7.63
2018-05-27T07:35:30.301Z,7.37
2018-05-27T07:37:57.772Z,6.40
2018-05-27T07:40:26.065Z,6.60
2018-05-27T07:42:53.533Z,7.10
2018-05-27T07:45:21.009Z,7.63
2018-05-27T07:47:48.554Z,6.67
2018-05-27T07:50:16.053Z,7.10
2018-05-27T07:52:45.065Z,6.20
2018-05-27T07:55:13.317Z,6.63
2018-05-27T07:57:40.831Z,6.40
2018-05-27T08:00:08.382Z,6.60
2018-05-27T08:02:35.869Z,6.07
2018-05-27T08:05:03.353Z,6.33
2018-05-27T08:07:30.891Z,6.40
2018-05-27T08:09:59.169Z,6.30
2018-05-27T08:12:26.638Z,6.90
2018-05-27T08:14:54.161Z,6.33
2018-05-27T08:17:21.657Z,6.53
2018-05-27T08:19:49.953Z,5.80
2018-05-27T08:22:17.538Z,6.30
2018-05-27T08:24:46.055Z,5.90
2018-05-27T08:27:13.609Z,6.17
2018-05-27T08:29:41.096Z,6.13
2018-05-27T08:32:08.572Z,5.93
2018-05-27T08:34:36.053Z,6.03
2018-05-27T08:37:03.541Z,5.77
2018-05-27T08:39:31.159Z,5.67
2018-05-27T08:41:58.663Z,6.27
2018-05-27T08:44:26.133Z,6.13
2018-05-27T08:46:54.441Z,6.23
2018-05-27T08:49:22.003Z,6.30
2018-05-27T08:51:49.506Z,6.60
2018-05-27T08:54:18.492Z,6.20
2018-05-27T08:56:46.016Z,5.60
2018-05-27T08:59:13.493Z,5.50
2018-05-27T09:01:41.021Z,5.90
2018-05-27T09:04:08.521Z,5.63
2018-05-27T09:06:36.003Z,5.40
2018-05-27T09:09:07.144Z,5.47
2018-05-27T09:11:35.405Z,5.00
2018-05-27T09:14:03.313Z,5.50
2018-05-27T09:16:30.810Z,4.93
2018-05-27T09:18:58.324Z,5.00
2018-05-27T09:21:25.821Z,5.20
2018-05-27T09:23:53.293Z,5.37
2018-05-27T09:26:20.785Z,5.73
2018-05-27T09:28:49.021Z,5.20
2018-05-27T09:31:16.511Z,5.30
2018-05-27T09:33:44.774Z,5.10
2018-05-27T09:36:13.080Z,5.47
2018-05-27T09:38:40.593Z,5.00
2018-05-27T09:41:08.093Z,5.50
2018-05-27T09:43:35.577Z,4.90
2018-05-27T09:46:03.073Z,5.70
2018-05-27T09:48:31.362Z,5.20
2018-05-27T09:50:59.690Z,5.07
2018-05-27T09:53:27.185Z,4.27
2018-05-27T09:55:55.432Z,4.93
2018-05-27T09:58:22.990Z,5.20
2018-05-27T10:00:50.457Z,5.10
2018-05-27T10:03:18.754Z,5.57
2018-05-27T10:05:47.010Z,4.87
2018-05-27T10:08:14.505Z,5.27
2018-05-27T10:10:42.041Z,5.07
2018-05-27T10:13:09.588Z,5.57
2018-05-27T10:15:37.195Z,4.77
2018-05-27T10:18:04.697Z,5.10
2018-05-27T10:20:32.207Z,5.67
2018-05-27T10:22:59.719Z,4.90
2018-05-27T10:25:28.037Z,5.50
2018-05-27T10:27:55.548Z,5.50
2018-05-27T10:30:23.825Z,5.13
2018-05-27T10:32:52.145Z,5.60
2018-05-27T10:35:20.369Z,5.30
2018-05-27T10:37:47.869Z,5.37
2018-05-27T10:40:15.432Z,5.60
2018-05-27T10:42:42.933Z,5.20
2018-05-27T10:45:11.181Z,5.10
2018-05-27T10:47:38.701Z,4.57
2018-05-27T10:50:06.214Z,4.00
2018-05-27T10:52:33.744Z,4.30
2018-05-27T10:55:01.226Z,4.17
2018-05-27T10:57:28.725Z,4.80
2018-05-27T10:59:57.014Z,5.47
2018-05-27T11:02:25.237Z,5.87
2018-05-27T11:04:52.752Z,6.63
2018-05-27T11:07:20.241Z,7.77
2018-05-27T11:09:47.750Z,6.87
2018-05-27T11:12:15.273Z,7.77
2018-05-27T11:14:42.734Z,8.03
2018-05-27T11:17:10.210Z,6.50
2018-05-27T11:19:38.536Z,8.13
2018-05-27T11:22:06.029Z,9.20
2018-05-27T11:24:33.531Z,9.70
2018-05-27T11:27:01.017Z,9.67
2018-05-27T11:29:28.524Z,13.97
2018-05-27T11:31:56.025Z,10.87
2018-05-27T11:34:23.524Z,11.70
2018-05-27T11:36:51.075Z,11.03
2018-05-27T11:39:18.682Z,10.83
2018-05-27T11:41:46.211Z,10.80
2018-05-27T11:44:15.214Z,14.20
2018-05-27T11:46:42.740Z,12.37
2018-05-27T11:49:10.985Z,10.17
2018-05-27T11:51:38.562Z,11.40
2018-05-27T11:54:06.015Z,12.60
2018-05-27T11:56:33.509Z,11.83
2018-05-27T11:59:01.013Z,10.03
2018-05-27T12:01:28.504Z,12.17
2018-05-27T12:03:56.774Z,10.03
2018-05-27T12:06:24.295Z,11.73
2018-05-27T12:08:51.799Z,10.90
2018-05-27T12:11:20.085Z,9.87
2018-05-27T12:13:48.371Z,11.10
2018-05-27T12:16:15.989Z,10.73
2018-05-27T12:18:43.516Z,11.10
2018-05-27T12:21:11.001Z,10.30
2018-05-27T12:23:38.487Z,11.40
2018-05-27T12:26:06.753Z,11.50
2018-05-27T12:28:35.041Z,8.97
2018-05-27T12:31:03.410Z,8.67
2018-05-27T12:33:30.917Z,9.93
2018-05-27T12:35:58.457Z,8.90
2018-05-27T12:38:25.959Z,7.70
2018-05-27T12:40:53.477Z,7.40
2018-05-27T12:43:20.960Z,8.20
2018-05-27T12:45:48.551Z,6.07
2018-05-27T12:48:16.851Z,6.00
2018-05-27T12:50:44.337Z,4.73
2018-05-27T12:53:11.829Z,5.00
2018-05-27T12:55:40.065Z,5.37
2018-05-27T12:58:07.585Z,5.73
2018-05-27T13:00:35.063Z,4.47
2018-05-27T13:03:02.669Z,4.40
2018-05-27T13:05:31.661Z,5.50
2018-05-27T13:07:59.133Z,5.30
2018-05-27T13:10:27.409Z,5.97
2018-05-27T13:12:55.649Z,3.97
2018-05-27T13:15:23.145Z,3.50
2018-05-27T13:17:51.390Z,3.97
2018-05-27T13:20:18.907Z,3.30
2018-05-27T13:22:46.394Z,3.60
2018-05-27T13:25:13.880Z,3.37
2018-05-27T13:27:42.137Z,2.97
2018-05-27T13:30:09.615Z,3.10
2018-05-27T13:32:37.888Z,3.60
2018-05-27T13:35:06.141Z,3.03
2018-05-27T13:37:33.657Z,5.00
2018-05-27T13:40:01.133Z,2.70
2018-05-27T13:42:28.605Z,5.27
2018-05-27T13:44:56.889Z,3.13
2018-05-27T13:47:24.344Z,3.27
2018-05-27T13:49:51.850Z,2.80
2018-05-27T13:52:19.348Z,3.13
2018-05-27T13:54:46.866Z,3.03
2018-05-27T13:57:14.350Z,3.07
2018-05-27T13:59:41.827Z,3.00
2018-05-27T14:02:09.324Z,3.10
2018-05-27T14:04:36.801Z,3.00
2018-05-27T14:07:04.287Z,3.43
2018-05-27T14:09:31.765Z,3.07
2018-05-27T14:11:59.265Z,7.83
2018-05-27T14:14:26.741Z,17.00
2018-05-27T14:16:54.232Z,5.20
2018-05-27T14:19:21.725Z,3.50
2018-05-27T14:21:49.260Z,10.87
2018-05-27T14:24:17.543Z,3.60
2018-05-27T14:26:45.790Z,3.40
2018-05-27T14:29:13.988Z,3.40
2018-05-27T14:31:41.487Z,3.23
2018-05-27T14:34:08.957Z,4.30
2018-05-27T14:36:36.446Z,7.03
2018-05-27T14:39:05.641Z,5.40
2018-05-27T14:41:33.240Z,4.47
2018-05-27T14:44:00.721Z,4.60
2018-05-27T14:46:28.210Z,3.23
2018-05-27T14:48:55.694Z,4.33
2018-05-27T14:51:23.172Z,2.80
2018-05-27T14:53:50.653Z,2.70
2018-05-27T14:56:18.145Z,2.80
2018-05-27T14:58:46.397Z,2.60
2018-05-27T15:01:14.669Z,2.87
2018-05-27T15:03:42.156Z,3.07
2018-05-27T15:06:10.393Z,2.97
2018-05-27T15:08:38.650Z,2.63
2018-05-27T15:11:06.140Z,3.03
2018-05-27T15:13:33.613Z,2.77
2018-05-27T15:16:01.861Z,3.17
2018-05-27T15:18:29.399Z,3.20
2018-05-27T15:20:57.605Z,3.20
2018-05-27T15:23:25.885Z,3.77
2018-05-27T15:25:54.128Z,5.10
2018-05-27T15:28:21.613Z,4.40
2018-05-27T15:30:49.875Z,4.80
2018-05-27T15:33:18.145Z,4.30
2018-05-27T15:35:45.617Z,4.50
2018-05-27T15:38:13.942Z,4.50
2018-05-27T15:40:41.445Z,4.97
2018-05-27T15:43:08.925Z,4.63
2018-05-27T15:45:38.737Z,5.70
2018-05-27T15:48:07.070Z,6.13
2018-05-27T15:50:34.560Z,6.80
2018-05-27T15:53:02.817Z,6.40
2018-05-27T15:55:30.313Z,7.13
2018-05-27T15:57:57.887Z,7.67
2018-05-27T16:00:25.383Z,8.07
2018-05-27T16:02:52.865Z,7.40
2018-05-27T16:05:21.131Z,8.40
2018-05-27T16:07:49.404Z,8.47
2018-05-27T16:10:17.657Z,9.43
2018-05-27T16:12:45.158Z,10.00
2018-05-27T16:15:12.639Z,10.60
2018-05-27T16:17:40.170Z,11.13
2018-05-27T16:20:07.673Z,11.70
2018-05-27T16:22:35.149Z,13.07
2018-05-27T16:25:02.654Z,14.13
2018-05-27T16:27:30.134Z,14.53
2018-05-27T16:29:57.650Z,15.37
2018-05-27T16:32:25.900Z,16.47
2018-05-27T16:34:53.401Z,17.27
2018-05-27T16:37:20.901Z,17.37
2018-05-27T16:39:49.181Z,16.23
2018-05-27T16:42:16.674Z,16.33
2018-05-27T16:44:44.149Z,17.23
2018-05-27T16:47:11.644Z,17.47
2018-05-27T16:49:39.132Z,16.27
2018-05-27T16:52:07.414Z,17.67
2018-05-27T16:54:35.673Z,17.70
2018-05-27T16:57:03.225Z,18.33
2018-05-27T16:59:31.495Z,16.87
2018-05-27T17:01:59.001Z,16.93
2018-05-27T17:04:26.513Z,16.87
2018-05-27T17:06:53.997Z,17.20
2018-05-27T17:09:21.502Z,19.03
2018-05-27T17:11:48.985Z,19.07
2018-05-27T17:14:17.258Z,17.03
2018-05-27T17:16:44.744Z,17.37
2018-05-27T17:19:13.016Z,16.67
2018-05-27T17:21:40.513Z,17.03
2018-05-27T17:24:08.015Z,14.17
2018-05-27T17:26:36.277Z,14.47
2018-05-27T17:29:03.761Z,13.03
2018-05-27T17:31:32.045Z,11.80
2018-05-27T17:33:59.598Z,10.00
2018-05-27T17:36:27.125Z,11.40
2018-05-27T17:38:55.378Z,10.23
2018-05-27T17:41:22.880Z,10.30
2018-05-27T17:43:50.413Z,10.57
2018-05-27T17:46:17.894Z,8.57
2018-05-27T17:48:46.165Z,9.40
2018-05-27T17:51:14.422Z,8.47
2018-05-27T17:53:42.690Z,9.07
2018-05-27T17:56:10.166Z,10.27
2018-05-27T17:58:38.521Z,9.60
2018-05-27T18:01:06.020Z,10.07
2018-05-27T18:03:33.523Z,9.10
2018-05-27T18:06:01.016Z,9.80
2018-05-27T18:08:29.284Z,9.23
2018-05-27T18:10:56.818Z,9.33
2018-05-27T18:13:24.321Z,9.57
2018-05-27T18:15:51.822Z,9.13
2018-05-27T18:18:19.326Z,9.33
2018-05-27T18:20:46.877Z,10.47
2018-05-27T18:23:15.127Z,10.33
2018-05-27T18:25:42.625Z,10.10
2018-05-27T18:28:10.205Z,12.17
2018-05-27T18:30:37.697Z,12.53
2018-05-27T18:33:05.270Z,10.50
2018-05-27T18:35:33.528Z,11.00
2018-05-27T18:38:01.033Z,11.27
2018-05-27T18:40:28.521Z,10.17
2018-05-27T18:42:56.032Z,10.63
2018-05-27T18:45:23.537Z,8.20
2018-05-27T18:47:51.018Z,7.20
2018-05-27T18:50:18.508Z,5.63
2018-05-27T18:52:46.030Z,5.80
2018-05-27T18:55:14.374Z,5.07
2018-05-27T18:57:41.897Z,4.40
2018-05-27T19:00:09.389Z,5.00
2018-05-27T19:02:36.912Z,3.53
2018-05-27T19:05:04.423Z,4.00
2018-05-27T19:07:31.914Z,3.07
2018-05-27T19:09:59.415Z,3.30
2018-05-27T19:12:26.910Z,2.40
2018-05-27T19:14:54.641Z,2.63
2018-05-27T19:17:22.183Z,2.10
2018-05-27T19:19:50.402Z,1.87
2018-05-27T19:22:17.885Z,1.50
2018-05-27T19:24:45.361Z,1.77
2018-05-27T19:27:12.862Z,2.00
2018-05-27T19:29:41.117Z,2.10
2018-05-27T19:32:08.634Z,1.93
2018-05-27T19:34:38.069Z,1.67
2018-05-27T19:37:05.577Z,1.80
2018-05-27T19:39:33.829Z,1.80
2018-05-27T19:42:01.344Z,2.30
2018-05-27T19:44:28.835Z,2.10
2018-05-27T19:46:56.330Z,1.93
2018-05-27T19:49:24.642Z,1.67
2018-05-27T19:51:52.912Z,1.77
2018-05-27T19:54:20.412Z,2.17
2018-05-27T19:56:48.021Z,1.77
2018-05-27T19:59:15.513Z,1.93
2018-05-27T20:01:43.009Z,1.83
2018-05-27T20:04:11.245Z,1.63
2018-05-27T20:06:38.753Z,1.50
2018-05-27T20:09:06.245Z,1.53
2018-05-27T20:11:33.732Z,1.40
2018-05-27T20:14:02.059Z,1.40
2018-05-27T20:16:29.557Z,1.40
2018-05-27T20:18:57.835Z,1.60
2018-05-27T20:21:25.317Z,2.10
2018-05-27T20:23:53.586Z,1.63
2018-05-27T20:26:21.841Z,1.50
2018-05-27T20:28:49.330Z,1.80
2018-05-27T20:31:16.841Z,1.57
2018-05-27T20:33:44.349Z,1.93
2018-05-27T20:36:11.859Z,1.50
2018-05-27T20:38:39.333Z,1.70
2018-05-27T20:41:07.604Z,1.70
2018-05-27T20:43:35.105Z,1.80
2018-05-27T20:46:02.621Z,1.73
2018-05-27T20:48:30.109Z,1.93
2018-05-27T20:50:57.594Z,1.47
2018-05-27T20:53:25.908Z,1.57
2018-05-27T20:55:53.406Z,1.80
2018-05-27T20:58:20.924Z,1.37
2018-05-27T21:00:48.402Z,1.60
2018-05-27T21:03:15.900Z,1.70
2018-05-27T21:05:43.381Z,2.13
2018-05-27T21:08:10.883Z,1.60
2018-05-27T21:10:38.389Z,1.90
2018-05-27T21:13:05.877Z,1.90
2018-05-27T21:15:33.413Z,1.50
2018-05-27T21:18:01.665Z,1.70
2018-05-27T21:20:29.165Z,1.73
2018-05-27T21:22:57.404Z,1.83
2018-05-27T21:25:24.924Z,1.73
2018-05-27T21:27:52.421Z,1.70
2018-05-27T21:30:20.351Z,1.90
2018-05-27T21:32:47.817Z,1.90
2018-05-27T21:35:15.305Z,2.40
2018-05-27T21:37:42.814Z,2.10
2018-05-27T21:40:10.959Z,1.87
2018-05-27T21:42:39.246Z,2.47
2018-05-27T21:45:07.529Z,2.33
2018-05-27T21:47:35.312Z,1.90
2018-05-27T21:50:02.821Z,2.40
2018-05-27T21:52:30.297Z,1.93
2018-05-27T21:54:57.821Z,1.90
2018-05-27T21:57:25.295Z,2.13
2018-05-27T21:59:52.805Z,1.90
2018-05-27T22:02:20.286Z,2.20
2018-05-27T22:04:47.787Z,2.20
2018-05-27T22:07:15.297Z,2.47
2018-05-27T22:09:42.809Z,1.80
2018-05-27T22:12:10.327Z,2.43
2018-05-27T22:14:37.807Z,2.23
2018-05-27T22:17:05.311Z,2.07
2018-05-27T22:19:32.805Z,2.23
2018-05-27T22:22:01.073Z,2.90
2018-05-27T22:24:28.571Z,6.00
2018-05-27T22:26:56.078Z,5.93
2018-05-27T22:29:23.597Z,4.37
2018-05-27T22:31:51.093Z,4.10
2018-05-27T22:34:18.569Z,3.70
2018-05-27T22:36:46.833Z,3.37
2018-05-27T22:39:15.097Z,3.70
2018-05-27T22:41:42.576Z,3.70
2018-05-27T22:44:10.879Z,3.77
2018-05-27T22:46:38.380Z,3.23
2018-05-27T22:49:05.874Z,3.80
2018-05-27T22:51:33.867Z,3.60
2018-05-27T22:54:01.381Z,3.37
2018-05-27T22:56:28.984Z,3.20
2018-05-27T22:58:56.523Z,3.43
2018-05-27T23:01:24.037Z,3.77
2018-05-27T23:03:51.530Z,3.37
2018-05-27T23:06:19.789Z,3.40
2018-05-27T23:08:48.033Z,3.40
2018-05-27T23:11:15.541Z,3.13
2018-05-27T23:13:43.054Z,2.97
2018-05-27T23:16:10.571Z,3.10
2018-05-27T23:18:38.060Z,3.10
2018-05-27T23:21:06.137Z,3.00
2018-05-27T23:23:33.657Z,2.90
2018-05-27T23:26:01.136Z,3.23
2018-05-27T23:28:28.649Z,3.00
2018-05-27T23:30:56.129Z,3.20
2018-05-27T23:33:24.422Z,2.93
2018-05-27T23:35:51.897Z,3.07
2018-05-27T23:38:19.442Z,3.13
2018-05-27T23:40:46.921Z,3.03
2018-05-27T23:43:14.448Z,3.00
2018-05-27T23:45:41.952Z,3.13
2018-05-27T23:48:10.216Z,3.23
2018-05-27T23:50:37.739Z,3.73
2018-05-27T23:53:05.514Z,3.60
2018-05-27T23:55:33.041Z,3.60
2018-05-27T23:58:01.442Z,3.37
